12:14
Airports
Links
Donate
Help keep this website running!
PayPal
Bitcoin
METAR
SBRJ 121200Z 15010KT 9000 FEW005 BKN007 BKN040 24/21 Q1015
Current Weather Conditions at SBRJ
IFR 12:00:00 12-12-17
Altimeter:29.97 hg
Temp:24.0°c 75°f
Dew point:21.0°c 70°f
Wind:10 knots, 11.5 mph, 5 m/s, from 150°
Visibility:5.59 statute miles
4000(BKN) Broken
700(BKN) Broken
500(FEW) A few
Past METAR reports
IFR 11:00:00 12-12-17
Altimeter:29.97 hg
Temp:23.0°c 73°f
Dew point:21.0°c 70°f
Wind:12 knots, 13.8 mph, 6 m/s, from 170°
Visibility:4.97 statute miles
8000(OVC) Overcast
700(BKN) Broken
500(FEW) A few
SBRJ 121100Z 17012KT 8000 FEW005 BKN007 OVC080 23/21 Q1015
IFR 10:20:00 12-12-17
Altimeter:29.94 hg
Temp:24.0°c 75°f
Dew point:21.0°c 70°f
Wind:12 knots, 13.8 mph, 6 m/s, from 170°
Visibility:4.97 statute miles
8000(BKN) Broken
2500(SCT) Scattered
700(BKN) Broken
SBRJ 121020Z 17012KT 8000 BKN007 SCT025 BKN080 24/21 Q1014
VFR 10:00:00 12-12-17
Altimeter:29.94 hg
Temp:25.0°c 77°f
Dew point:21.0°c 70°f
Wind:6 knots, 6.9 mph, 3 m/s, from 180°
Visibility:6.21 statute miles
8000(BKN) Broken
2000(SCT) Scattered
700(SCT) Scattered
SBRJ 121000Z 18006KT 9999 SCT007 SCT020 BKN080 25/21 Q1014
VFR 09:00:00 12-12-17
Altimeter:29.91 hg
Temp:24.0°c 75°f
Dew point:21.0°c 70°f
Wind:6 knots, 6.9 mph, 3 m/s, from 170°
Visibility:6.21 statute miles
8000(BKN) Broken
2000(FEW) A few
SBRJ 120900Z 17006KT 9999 FEW020 BKN080 24/21 Q1013
VFR 08:00:00 12-12-17
Altimeter:29.88 hg
Temp:23.0°c 73°f
Dew point:21.0°c 70°f
Wind:5 knots, 5.8 mph, 3 m/s, from 170°
Visibility:6.21 statute miles
9000(BKN) Broken
2000(FEW) A few
SBRJ 120800Z 17005KT 9999 FEW020 BKN090 23/21 Q1012
VFR 07:00:00 12-12-17
Altimeter:29.85 hg
Temp:23.0°c 73°f
Dew point:21.0°c 70°f
Wind:6 knots, 6.9 mph, 3 m/s, from 190°
Visibility:6.21 statute miles
9000(BKN) Broken
2000(SCT) Scattered
SBRJ 120700Z 19006KT 9999 SCT020 BKN090 23/21 Q1011
TAF
No TAF for SBRJ
Forecast at SBRJ
No Forecast Reports for SBRJ